Yokohama, Japan
Current Conditions -  °F | °C
As of 5:30 PM on Sunday 26 Oct 2014 (Local Time) from RJTT Reporting Station
Broken Clouds Broken Clouds  
Wind Chill: 72°   Ceiling: Unl
Heat Index: 72°   Visibility: 6mi
Dew Point: 63°   Wind: 8mph
Humidity: 73%   Direction: 160°SSE
Pressure: 30.03"   Gusts: NA
Location:  35.47°N, 139.62°E
Report Text: RJTT 260830Z 16007KT 9999 FEW020 SCT120 BKN/// 22/17 Q1017 NOSIG RMK 1CU020 3AC120 A3003
Loading
Personal Weather Stations






























Interactive Weather Map
Tropical Storm Tracking
New forecast layout! Learn more

10-Day Weather Forecast

Advertisements
Track Severe Weather on mobile